Time;durP1;ratioP1;P1;durP2;ratioP2;P2;SDS_P1;SDS_P2;PMS_P1;PMS_P2;Temp;Humidity;BMP_temperature;BMP_pressure;BME280_temperature;BME280_humidity;BME280_pressure;Samples;Min_cycle;Max_cycle;Signal;HPM_P1;HPM_P2
2022/06/13 00:01:46;;;;;;;13.55;3.78;;;15.30;72.30;;;;;;5037161;28;20041;-89
2022/06/13 00:04:13;;;;;;;12.45;3.45;;;15.30;72.40;;;;;;5038138;28;20428;-89
2022/06/13 00:06:40;;;;;;;15.63;4.10;;;15.30;72.50;;;;;;5038719;28;20042;-89
2022/06/13 00:09:07;;;;;;;16.13;4.20;;;15.20;72.50;;;;;;5030707;28;20497;-89
2022/06/13 00:11:34;;;;;;;14.77;4.35;;;15.20;72.60;;;;;;5024943;28;20093;-88
2022/06/13 00:14:03;;;;;;;15.98;3.90;;;15.20;72.60;;;;;;5004492;28;20050;-88
2022/06/13 00:16:29;;;;;;;14.02;4.60;;;15.20;72.70;;;;;;5032840;28;20465;-89
2022/06/13 00:18:57;;;;;;;12.90;4.15;;;15.20;72.80;;;;;;5033361;28;20045;-89
2022/06/13 00:21:35;;;;;;;14.00;4.10;;;15.20;72.80;;;;;;5033909;28;20100;-90
2022/06/13 00:24:05;;;;;;;17.98;4.25;;;15.20;72.90;;;;;;5031446;28;20065;-89
2022/06/13 00:26:33;;;;;;;15.32;4.50;;;15.10;72.90;;;;;;5026908;28;20461;-89
2022/06/13 00:29:01;;;;;;;15.85;4.50;;;15.20;73.00;;;;;;5031579;28;20045;-89
2022/06/13 00:31:29;;;;;;;18.33;4.38;;;15.10;73.00;;;;;;5033920;28;20437;-90
2022/06/13 00:33:56;;;;;;;18.25;4.10;;;15.10;73.10;;;;;;5032538;28;20080;-90
2022/06/13 00:36:23;;;;;;;14.32;4.30;;;15.10;73.10;;;;;;5032991;28;20099;-90
2022/06/13 00:38:51;;;;;;;18.95;5.32;;;15.00;73.20;;;;;;5031402;28;20049;-89
2022/06/13 00:41:26;;;;;;;22.77;5.22;;;15.00;73.20;;;;;;5013973;28;20521;-90
2022/06/13 00:43:54;;;;;;;13.18;4.20;;;15.00;73.30;;;;;;5031843;28;20045;-90
2022/06/13 00:46:30;;;;;;;18.80;4.80;;;15.00;73.40;;;;;;5032889;28;20045;-89
2022/06/13 00:49:05;;;;;;;14.32;4.30;;;15.00;73.50;;;;;;5015246;28;20107;-89
2022/06/13 00:51:35;;;;;;;15.20;4.72;;;15.00;73.50;;;;;;5017151;28;20057;-91
2022/06/13 00:54:03;;;;;;;12.32;4.07;;;15.00;73.60;;;;;;5030976;28;20099;-90
2022/06/13 00:56:35;;;;;;;15.35;4.32;;;14.90;73.70;;;;;;5031318;28;20057;-89
2022/06/13 00:59:09;;;;;;;16.75;4.63;;;14.90;73.70;;;;;;5030172;28;20146;-89
2022/06/13 01:01:36;;;;;;;;;;;14.90;73.80;;;;;;5031584;28;20049;-87
2022/06/13 01:04:05;;;;;;;15.85;5.20;;;14.90;73.80;;;;;;5032524;28;20313;-88
2022/06/13 01:06:39;;;;;;;15.73;4.95;;;14.90;73.90;;;;;;5016971;28;20552;-88
2022/06/13 01:09:09;;;;;;;21.50;5.18;;;14.90;74.00;;;;;;5030328;28;20046;-88
2022/06/13 01:11:43;;;;;;;14.10;4.88;;;14.90;74.10;;;;;;5032218;28;20045;-88
2022/06/13 01:14:28;;;;;;;17.65;5.13;;;14.90;74.20;;;;;;5030430;28;20050;-89
2022/06/13 01:17:46;;;;;;;13.73;4.57;;;14.90;74.20;;;;;;5029891;28;20403;-88
2022/06/13 01:20:27;;;;;;;14.77;5.05;;;14.90;74.30;;;;;;4945099;29;20458;-87
2022/06/13 01:23:21;;;;;;;17.35;5.65;;;14.80;74.40;;;;;;4944280;29;20421;-89
2022/06/13 01:26:35;;;;;;;13.88;5.10;;;14.80;74.50;;;;;;4953340;29;20051;-90
2022/06/13 01:29:20;;;;;;;15.63;5.18;;;14.80;74.60;;;;;;4953863;29;20067;-90
2022/06/13 01:31:53;;;;;;;15.85;4.80;;;14.80;74.60;;;;;;4933239;29;20052;-90
2022/06/13 01:34:47;;;;;;;16.15;4.95;;;14.80;74.70;;;;;;4953183;29;20171;-89
2022/06/13 01:37:29;;;;;;;19.83;5.47;;;14.80;74.70;;;;;;4965519;28;20101;-89
2022/06/13 01:40:07;;;;;;;14.75;5.10;;;14.80;74.70;;;;;;4991896;28;20050;-88
2022/06/13 01:42:53;;;;;;;15.10;5.07;;;14.80;74.80;;;;;;4988207;28;20509;-89
2022/06/13 01:45:30;;;;;;;16.13;5.57;;;14.80;74.80;;;;;;5002187;28;20046;-88
2022/06/13 01:48:20;;;;;;;18.42;5.30;;;14.80;74.80;;;;;;4971364;28;20443;-89
2022/06/13 01:51:24;;;;;;;17.48;5.70;;;14.80;74.90;;;;;;4982916;28;20470;-88
2022/06/13 01:54:29;;;;;;;16.42;5.28;;;14.80;75.00;;;;;;5003474;28;20099;-89
2022/06/13 01:57:17;;;;;;;17.63;5.45;;;14.70;75.00;;;;;;5050269;28;20053;-90
2022/06/13 02:00:11;;;;;;;17.08;4.75;;;14.70;75.10;;;;;;5048246;28;20056;-89
2022/06/13 02:02:49;;;;;;;12.15;5.25;;;14.70;75.10;;;;;;5038147;28;20049;-89
2022/06/13 02:05:34;;;;;;;13.18;4.57;;;14.70;75.10;;;;;;5043111;28;20049;-88
2022/06/13 02:08:25;;;;;;;17.48;5.15;;;14.70;75.10;;;;;;5049478;28;20037;-88
2022/06/13 02:11:13;;;;;;;18.52;5.43;;;14.70;75.20;;;;;;5049022;28;20111;-88
2022/06/13 02:14:29;;;;;;;15.25;5.03;;;14.70;75.20;;;;;;5051089;28;20110;-89
2022/06/13 02:17:11;;;;;;;12.93;4.60;;;14.70;75.20;;;;;;5039144;28;20228;-89
2022/06/13 02:19:47;;;;;;;12.35;4.30;;;14.70;75.20;;;;;;5051954;28;20398;-89
2022/06/13 02:22:23;;;;;;;13.68;4.63;;;14.70;75.20;;;;;;5034029;28;20075;-88
2022/06/13 02:24:56;;;;;;;16.38;4.95;;;14.70;75.20;;;;;;5049141;28;20044;-89
2022/06/13 02:27:33;;;;;;;13.18;4.90;;;14.70;75.20;;;;;;5046795;28;20052;-90
2022/06/13 02:30:05;;;;;;;17.35;5.00;;;14.60;75.20;;;;;;5034280;28;20484;-89
2022/06/13 02:32:39;;;;;;;13.95;4.95;;;14.60;75.20;;;;;;5060297;28;20514;-88
2022/06/13 02:35:20;;;;;;;;;;;14.70;75.20;;;;;;5050821;28;20107;-90
2022/06/13 02:37:52;;;;;;;15.50;4.82;;;14.60;75.10;;;;;;5030305;28;20443;-88
2022/06/13 02:40:32;;;;;;;14.82;5.20;;;14.60;75.10;;;;;;5028913;28;20750;-89
2022/06/13 02:43:09;;;;;;;15.88;4.45;;;14.60;75.10;;;;;;5029889;28;20054;-89
2022/06/13 02:45:58;;;;;;;16.17;5.13;;;14.60;75.10;;;;;;5028082;28;20501;-88
2022/06/13 02:48:33;;;;;;;14.63;4.95;;;14.60;75.10;;;;;;5031452;28;20144;-90
2022/06/13 02:51:18;;;;;;;12.30;4.45;;;14.60;75.10;;;;;;5029214;28;20472;-89
2022/06/13 02:53:49;;;;;;;14.50;4.47;;;14.50;75.10;;;;;;5031563;28;20060;-89
2022/06/13 02:57:23;;;;;;;14.43;4.88;;;14.50;75.10;;;;;;5029027;28;20049;-89
2022/06/13 02:59:56;;;;;;;15.13;5.00;;;14.50;75.10;;;;;;5031376;28;20096;-89
2022/06/13 03:02:44;;;;;;;13.77;4.65;;;14.50;75.10;;;;;;5028608;28;20103;-89
2022/06/13 03:05:38;;;;;;;14.98;4.70;;;14.50;75.10;;;;;;5028789;28;20483;-89
2022/06/13 03:08:42;;;;;;;14.52;4.70;;;14.40;75.10;;;;;;5030277;28;20037;-90
2022/06/13 03:11:28;;;;;;;13.40;4.68;;;14.40;75.10;;;;;;5031272;28;20107;-88
2022/06/13 03:14:07;;;;;;;12.90;4.85;;;14.40;75.10;;;;;;5030091;28;20049;-88
2022/06/13 03:16:40;;;;;;;12.93;4.75;;;14.40;75.10;;;;;;5030464;28;20057;-88
2022/06/13 03:19:38;;;;;;;14.18;4.30;;;14.40;75.10;;;;;;5029664;28;20417;-89
2022/06/13 03:22:15;;;;;;;14.00;4.30;;;14.40;75.00;;;;;;5011403;28;20086;-88
2022/06/13 03:24:50;;;;;;;11.98;4.38;;;14.40;75.00;;;;;;5011225;28;20050;-91
2022/06/13 03:27:35;;;;;;;11.95;4.18;;;14.40;75.00;;;;;;5012454;28;20054;-89
2022/06/13 03:30:10;;;;;;;10.63;3.75;;;14.40;74.90;;;;;;5014015;28;20061;-89
2022/06/13 03:33:39;;;;;;;14.77;4.45;;;14.40;74.90;;;;;;5017513;28;20050;-89
2022/06/13 03:35:34;;;;;;;12.13;4.20;;;14.40;74.80;;;;;;5025626;28;20100;-89
2022/06/13 03:38:04;;;;;;;12.40;4.05;;;14.30;74.80;;;;;;5021772;28;20465;-89
2022/06/13 03:40:35;;;;;;;12.30;4.65;;;14.30;74.80;;;;;;5001303;28;20053;-90
2022/06/13 03:43:11;;;;;;;13.57;4.22;;;14.30;74.80;;;;;;5012320;28;20046;-90
2022/06/13 03:45:44;;;;;;;12.88;4.05;;;14.30;74.80;;;;;;5012743;28;20058;-89
2022/06/13 03:48:29;;;;;;;12.82;4.20;;;14.30;74.70;;;;;;5029647;28;20567;-89
2022/06/13 03:51:04;;;;;;;10.88;4.05;;;14.20;74.70;;;;;;5029400;28;20461;-90
2022/06/13 03:53:43;;;;;;;16.77;4.93;;;14.20;74.70;;;;;;5027686;28;20107;-90
2022/06/13 03:56:26;;;;;;;11.73;4.05;;;14.20;74.70;;;;;;5016823;28;20053;-89
2022/06/13 03:59:05;;;;;;;16.58;4.50;;;14.20;74.70;;;;;;5034308;28;20540;-89
2022/06/13 04:01:41;;;;;;;15.85;5.00;;;14.20;74.70;;;;;;5017015;28;20053;-89
2022/06/13 04:04:24;;;;;;;12.13;3.80;;;14.20;74.70;;;;;;5016025;28;20053;-90
2022/06/13 04:06:54;;;;;;;11.85;4.85;;;14.10;74.70;;;;;;5012804;28;20054;-89
2022/06/13 04:09:46;;;;;;;13.70;4.78;;;14.10;74.70;;;;;;5018461;28;20464;-89
2022/06/13 04:12:38;;;;;;;13.63;4.60;;;14.10;74.70;;;;;;5021681;28;20111;-90
2022/06/13 04:15:26;;;;;;;9.65;4.45;;;14.10;74.70;;;;;;5031486;28;20057;-89
2022/06/13 04:18:17;;;;;;;13.30;4.53;;;14.00;74.70;;;;;;5033897;28;20065;-89
2022/06/13 04:21:12;;;;;;;15.10;4.63;;;14.00;74.80;;;;;;5019225;28;20048;-88
2022/06/13 04:24:02;;;;;;;12.48;4.00;;;14.00;74.80;;;;;;5027840;28;20514;-89
2022/06/13 04:26:42;;;;;;;12.00;4.75;;;14.00;74.80;;;;;;4954563;29;20047;-89
2022/06/13 04:29:32;;;;;;;11.13;3.97;;;14.00;74.80;;;;;;4951360;29;20051;-88
2022/06/13 04:32:04;;;;;;;9.50;3.83;;;14.00;74.90;;;;;;4939570;29;20546;-89
2022/06/13 04:34:42;;;;;;;15.30;4.78;;;14.00;74.90;;;;;;4942959;29;20043;-90
2022/06/13 04:37:10;;;;;;;14.98;4.50;;;14.00;74.90;;;;;;4948442;28;20101;-88
2022/06/13 04:39:40;;;;;;;13.63;4.00;;;14.00;74.90;;;;;;4993387;28;20046;-90
2022/06/13 04:42:09;;;;;;;14.45;4.25;;;13.90;74.90;;;;;;4981672;28;20055;-89
2022/06/13 04:44:39;;;;;;;11.00;4.20;;;13.90;74.90;;;;;;4989007;28;20086;-89
2022/06/13 04:47:07;;;;;;;11.10;3.97;;;13.90;75.00;;;;;;4993341;28;20058;-90
2022/06/13 04:49:48;;;;;;;11.18;3.90;;;13.90;75.00;;;;;;4992719;28;20427;-89
2022/06/13 04:52:30;;;;;;;9.70;3.97;;;14.00;75.00;;;;;;5009187;28;20046;-89
2022/06/13 04:55:01;;;;;;;9.65;3.78;;;13.90;75.00;;;;;;4976774;28;20046;-90
2022/06/13 04:57:29;;;;;;;11.00;4.30;;;14.00;75.00;;;;;;4993455;28;20058;-89
2022/06/13 04:59:57;;;;;;;14.20;4.40;;;14.00;75.00;;;;;;4993049;28;20042;-89
2022/06/13 05:02:38;;;;;;;11.35;3.70;;;13.90;75.00;;;;;;4992252;28;20054;-89
2022/06/13 05:05:20;;;;;;;12.02;4.07;;;14.00;75.00;;;;;;5046631;28;20040;-89
2022/06/13 05:07:47;;;;;;;9.98;3.80;;;14.00;75.00;;;;;;5050301;28;20057;-88
2022/06/13 05:10:19;;;;;;;11.43;4.03;;;14.00;75.00;;;;;;5049485;28;20095;-89
2022/06/13 05:12:47;;;;;;;10.57;3.60;;;14.00;75.10;;;;;;5052850;28;20535;-89
2022/06/13 05:15:24;;;;;;;10.63;4.22;;;14.00;75.10;;;;;;5053559;28;20490;-88
2022/06/13 05:18:13;;;;;;;11.85;3.90;;;14.00;75.10;;;;;;5050590;28;20118;-89
2022/06/13 05:20:52;;;;;;;9.60;3.15;;;14.00;75.10;;;;;;5050427;28;20052;-89
2022/06/13 05:23:48;;;;;;;8.75;3.33;;;14.00;75.10;;;;;;5049571;28;20110;-89
2022/06/13 05:26:15;;;;;;;7.45;3.03;;;14.10;75.10;;;;;;5050208;28;20076;-89
2022/06/13 05:28:42;;;;;;;10.30;3.55;;;14.10;75.10;;;;;;5048661;28;20049;-88
2022/06/13 05:31:19;;;;;;;10.65;3.50;;;14.10;75.10;;;;;;5032451;28;20071;-88
2022/06/13 05:33:49;;;;;;;9.27;3.13;;;14.10;75.10;;;;;;5049786;28;20186;-89
2022/06/13 05:36:22;;;;;;;9.65;3.72;;;14.20;75.10;;;;;;5032807;28;20064;-91
2022/06/13 05:38:59;;;;;;;15.00;4.20;;;14.20;75.10;;;;;;5048990;28;20107;-90
2022/06/13 05:41:26;;;;;;;11.45;3.70;;;14.10;75.10;;;;;;5058864;28;20059;-90
2022/06/13 05:43:53;;;;;;;8.50;3.60;;;14.20;75.10;;;;;;5048154;28;20049;-90
2022/06/13 05:46:32;;;;;;;10.40;3.42;;;14.20;75.10;;;;;;5049200;28;20061;-89
2022/06/13 05:49:00;;;;;;;9.80;3.28;;;14.30;75.10;;;;;;5050618;28;20057;-89
2022/06/13 05:51:26;;;;;;;9.63;3.53;;;14.30;75.10;;;;;;5053884;28;20065;-90
2022/06/13 05:53:57;;;;;;;9.27;3.75;;;14.30;75.10;;;;;;5051575;28;20048;-90
2022/06/13 05:56:25;;;;;;;9.45;3.15;;;14.40;75.10;;;;;;5051501;28;20472;-89
2022/06/13 05:58:53;;;;;;;10.05;3.22;;;14.40;75.00;;;;;;5043003;28;20119;-90
2022/06/13 06:01:20;;;;;;;8.95;3.35;;;14.40;75.00;;;;;;5052623;28;20053;-90
2022/06/13 06:03:47;;;;;;;6.50;2.90;;;14.40;75.00;;;;;;5053570;28;20059;-90
2022/06/13 06:06:20;;;;;;;9.00;3.28;;;14.50;74.90;;;;;;5033509;28;20041;-89
2022/06/13 06:08:48;;;;;;;10.38;3.35;;;14.50;74.90;;;;;;5040929;28;20041;-90
2022/06/13 06:11:15;;;;;;;11.70;3.50;;;14.60;74.90;;;;;;5050899;28;20081;-90
2022/06/13 06:13:42;;;;;;;8.88;3.20;;;14.60;74.80;;;;;;5052129;28;20497;-90
2022/06/13 06:16:14;;;;;;;9.88;3.38;;;14.60;74.80;;;;;;5051365;28;20057;-90
2022/06/13 06:18:42;;;;;;;6.63;2.70;;;14.70;74.80;;;;;;5051644;28;20467;-89
2022/06/13 06:21:09;;;;;;;7.57;3.17;;;14.80;74.70;;;;;;5051056;28;20060;-90
2022/06/13 06:23:37;;;;;;;10.23;3.33;;;14.80;74.60;;;;;;5046388;28;20045;-90
2022/06/13 06:26:05;;;;;;;8.95;3.17;;;14.80;74.60;;;;;;5046291;28;20060;-89
2022/06/13 06:28:33;;;;;;;8.38;3.03;;;14.90;74.50;;;;;;5045589;28;20049;-91
2022/06/13 06:31:02;;;;;;;9.73;2.92;;;14.90;74.50;;;;;;5033515;28;20536;-93
2022/06/13 06:33:30;;;;;;;13.07;3.13;;;14.90;74.40;;;;;;5052360;28;20056;-91
2022/06/13 06:35:57;;;;;;;10.07;2.72;;;14.90;74.30;;;;;;5048385;28;20517;-93
2022/06/13 06:38:26;;;;;;;8.98;2.97;;;15.00;74.30;;;;;;5019662;28;20096;-92
2022/06/13 06:40:53;;;;;;;7.68;3.15;;;15.10;74.20;;;;;;5013605;28;20530;-93
2022/06/13 06:43:20;;;;;;;9.23;3.17;;;15.20;74.10;;;;;;5015385;28;20054;-92
2022/06/13 06:45:48;;;;;;;8.63;2.97;;;15.20;74.10;;;;;;5015769;28;20049;-91
2022/06/13 06:48:21;;;;;;;8.63;2.67;;;15.30;74.00;;;;;;5015787;28;20053;-90
2022/06/13 06:50:49;;;;;;;7.43;2.67;;;15.30;73.90;;;;;;5029628;28;20502;-91
2022/06/13 06:53:24;;;;;;;8.13;2.40;;;15.30;73.80;;;;;;5013378;28;20053;-91
2022/06/13 07:01:27;;;;;;;9.50;2.67;;;15.40;73.40;;;;;;5015466;28;20046;-91
2022/06/13 07:03:54;;;;;;;10.43;2.97;;;15.50;73.30;;;;;;5032979;28;20056;-91
2022/06/13 07:06:21;;;;;;;11.25;3.08;;;15.60;73.20;;;;;;5013258;28;20042;-91
2022/06/13 07:08:48;;;;;;;6.82;2.53;;;15.60;73.00;;;;;;5026504;28;20552;-90
2022/06/13 07:14:08;;;;;;;11.45;2.63;;;15.80;72.90;;;;;;5033257;28;20054;-92
2022/06/13 07:16:35;;;;;;;9.68;2.72;;;15.80;72.80;;;;;;5033577;28;20103;-93
2022/06/13 07:19:03;;;;;;;9.80;2.60;;;15.90;72.50;;;;;;5033037;28;20049;-92
2022/06/13 07:21:30;;;;;;;9.80;2.53;;;15.90;72.40;;;;;;5033678;28;20057;-92
2022/06/13 07:23:56;;;;;;;10.95;2.75;;;15.90;72.20;;;;;;5033505;28;20049;-92
2022/06/13 07:26:24;;;;;;;9.20;2.83;;;16.00;72.00;;;;;;5036839;28;20049;-91
2022/06/13 07:28:55;;;;;;;10.75;2.83;;;16.10;71.90;;;;;;5028077;28;20413;-93
2022/06/13 07:31:36;;;;;;;10.20;2.50;;;16.20;71.60;;;;;;5022820;28;20061;-91
2022/06/13 07:34:06;;;;;;;7.93;2.55;;;16.20;71.40;;;;;;5035233;28;20058;-92
2022/06/13 07:36:33;;;;;;;8.75;2.50;;;16.30;71.30;;;;;;5036846;28;20061;-90
2022/06/13 07:39:00;;;;;;;11.63;2.75;;;16.30;71.20;;;;;;5018347;28;20313;-89
2022/06/13 07:41:27;;;;;;;9.15;2.60;;;16.40;71.00;;;;;;5030370;28;20057;-91
2022/06/13 07:43:56;;;;;;;10.23;2.47;;;16.40;70.80;;;;;;5019576;28;20407;-92
2022/06/13 07:46:28;;;;;;;7.63;2.63;;;16.50;70.60;;;;;;5019106;28;20498;-93
2022/06/13 07:48:56;;;;;;;8.93;2.70;;;16.60;70.40;;;;;;5019298;28;20052;-91
2022/06/13 07:51:24;;;;;;;9.48;2.58;;;16.70;70.20;;;;;;5036994;28;20457;-93
2022/06/13 07:53:51;;;;;;;10.70;3.30;;;16.70;70.00;;;;;;5021042;28;20072;-94
2022/06/13 07:56:27;;;;;;;9.48;2.75;;;16.80;69.70;;;;;;5001221;28;20065;-93
2022/06/13 07:58:54;;;;;;;8.88;2.25;;;16.90;69.50;;;;;;5017560;28;20062;-93
2022/06/13 08:01:22;;;;;;;11.38;3.72;;;16.90;69.30;;;;;;5017296;28;20491;-92
2022/06/13 08:03:49;;;;;;;9.70;2.47;;;16.90;69.10;;;;;;5017017;28;20491;-94
2022/06/13 08:06:16;;;;;;;11.35;2.70;;;16.90;68.90;;;;;;5000127;28;20049;-93
2022/06/13 08:08:45;;;;;;;6.78;2.20;;;17.00;68.70;;;;;;5017101;28;20119;-93
2022/06/13 08:11:17;;;;;;;7.05;2.25;;;17.10;68.60;;;;;;5028878;28;20576;-93
2022/06/13 08:13:44;;;;;;;8.90;3.17;;;17.20;68.40;;;;;;5036752;28;20050;-94
2022/06/13 08:16:11;;;;;;;7.03;2.60;;;17.20;68.30;;;;;;5036338;28;20502;-89
2022/06/13 08:18:39;;;;;;;9.20;2.50;;;17.30;68.10;;;;;;5036294;28;20058;-92
2022/06/13 08:21:07;;;;;;;9.75;2.75;;;17.30;68.00;;;;;;5036805;28;20050;-94
2022/06/13 08:23:34;;;;;;;7.88;2.40;;;17.40;67.90;;;;;;5036270;28;20045;-92
2022/06/13 08:26:01;;;;;;;8.82;2.17;;;17.40;67.80;;;;;;5018837;28;20057;-93
2022/06/13 08:28:28;;;;;;;5.80;2.28;;;17.50;67.60;;;;;;5036338;28;20107;-92
2022/06/13 08:30:57;;;;;;;9.23;2.50;;;17.50;67.50;;;;;;5034069;28;20053;-92
2022/06/13 08:33:24;;;;;;;7.05;2.30;;;17.60;67.30;;;;;;5016075;28;20565;-92
2022/06/13 08:35:51;;;;;;;6.68;2.45;;;17.70;67.20;;;;;;5017446;28;20050;-93
2022/06/13 08:38:19;;;;;;;6.70;2.40;;;17.70;67.00;;;;;;5054620;28;20527;-92
2022/06/13 08:41:07;;;;;;;7.35;2.42;;;17.80;66.80;;;;;;5055822;28;20094;-91
2022/06/13 08:43:52;;;;;;;7.68;1.90;;;17.90;66.70;;;;;;5048490;28;20049;-94
2022/06/13 08:46:50;;;;;;;7.50;2.33;;;17.90;66.50;;;;;;5035686;28;20065;-92
2022/06/13 08:49:20;;;;;;;8.65;3.00;;;18.10;66.20;;;;;;5041024;28;20410;-92
2022/06/13 08:52:03;;;;;;;9.00;2.80;;;18.20;66.00;;;;;;5055745;28;20049;-93
2022/06/13 08:54:34;;;;;;;6.53;1.88;;;18.20;65.70;;;;;;5055279;28;20053;-92
2022/06/13 08:57:07;;;;;;;8.27;2.17;;;18.40;65.50;;;;;;5054052;28;20651;-91
2022/06/13 08:59:43;;;;;;;7.95;2.47;;;18.40;65.30;;;;;;5055443;28;20045;-92
2022/06/13 09:02:25;;;;;;;7.75;2.45;;;18.50;65.00;;;;;;5055352;28;20057;-92
2022/06/13 09:04:59;;;;;;;9.40;2.22;;;18.60;64.70;;;;;;5056019;28;20045;-90
2022/06/13 09:07:44;;;;;;;7.20;2.75;;;18.70;64.50;;;;;;5051509;28;20053;-87
2022/06/13 09:10:17;;;;;;;7.95;2.53;;;18.70;64.20;;;;;;5039847;28;20049;-94
2022/06/13 09:30:48;;;;;;;12.00;3.28;;;18.80;63.00;;;;;;5111204;27;20401;-92
2022/06/13 09:33:31;;;;;;;15.60;3.72;;;18.70;63.00;;;;;;5110848;28;20056;-93
2022/06/13 09:36:03;;;;;;;12.25;3.20;;;18.80;63.10;;;;;;5111465;28;20051;-92
2022/06/13 09:38:43;;;;;;;9.07;2.85;;;18.80;63.00;;;;;;5098764;28;20051;-92
2022/06/13 09:41:33;;;;;;;9.10;2.70;;;18.90;62.80;;;;;;5090331;28;20139;-91
2022/06/13 09:44:25;;;;;;;12.32;2.80;;;18.90;62.40;;;;;;5022122;28;20439;-91
2022/06/13 09:47:09;;;;;;;9.60;2.35;;;18.90;61.80;;;;;;5044142;28;20076;-92
2022/06/13 09:49:42;;;;;;;9.90;2.60;;;19.00;61.70;;;;;;5044105;28;20096;-92
2022/06/13 09:52:43;;;;;;;11.05;3.08;;;19.10;61.60;;;;;;5044807;28;20046;-92
2022/06/13 09:55:24;;;;;;;8.80;2.47;;;19.10;61.50;;;;;;5012751;28;20046;-91
2022/06/13 09:58:21;;;;;;;9.50;2.97;;;19.20;61.30;;;;;;5048745;28;20107;-93
2022/06/13 10:00:57;;;;;;;9.48;2.50;;;19.30;61.20;;;;;;5028477;28;20061;-93
2022/06/13 10:03:46;;;;;;;7.13;2.35;;;19.30;60.90;;;;;;5031711;28;20050;-91
2022/06/13 10:06:53;;;;;;;7.07;2.05;;;19.40;60.60;;;;;;5028550;28;20054;-92
2022/06/13 10:09:38;;;;;;;7.22;2.10;;;19.50;60.40;;;;;;5028546;28;20053;-92
2022/06/13 10:12:28;;;;;;;6.32;1.92;;;19.50;60.10;;;;;;5039501;28;20055;-92
2022/06/13 10:15:11;;;;;;;7.10;2.00;;;19.60;60.00;;;;;;5047901;28;20045;-91
2022/06/13 10:17:59;;;;;;;9.73;1.90;;;19.60;59.70;;;;;;5044539;28;20045;-92
2022/06/13 10:20:46;;;;;;;8.85;2.08;;;19.80;59.60;;;;;;5053054;28;20093;-91
2022/06/13 10:23:42;;;;;;;7.45;1.83;;;19.70;59.50;;;;;;5089302;28;20052;-93
2022/06/13 10:26:12;;;;;;;8.02;1.90;;;19.80;59.40;;;;;;5089200;28;20094;-91
2022/06/13 10:29:00;;;;;;;6.35;2.10;;;19.80;59.30;;;;;;5083057;28;20509;-88
2022/06/13 10:31:46;;;;;;;8.95;2.00;;;19.80;59.20;;;;;;5074902;28;20072;-90
2022/06/13 10:34:45;;;;;;;7.68;1.90;;;19.80;59.10;;;;;;5073201;28;20055;-91
2022/06/13 10:37:32;;;;;;;5.63;1.58;;;19.80;59.10;;;;;;5069285;28;20056;-91
2022/06/13 10:40:01;;;;;;;5.38;1.85;;;19.90;59.00;;;;;;5086060;28;20412;-91
2022/06/13 10:42:31;;;;;;;6.30;1.90;;;19.90;59.00;;;;;;5075356;28;20044;-90
2022/06/13 10:44:59;;;;;;;6.43;1.80;;;19.90;58.80;;;;;;5075336;28;20563;-92
2022/06/13 10:47:46;;;;;;;4.85;1.50;;;19.90;58.70;;;;;;5075924;28;20059;-90
2022/06/13 10:50:22;;;;;;;7.38;1.80;;;19.90;58.70;;;;;;5075448;28;20048;-89
2022/06/13 10:52:52;;;;;;;4.22;1.50;;;19.90;58.60;;;;;;5085422;28;20048;-94
2022/06/13 10:55:30;;;;;;;6.13;1.60;;;20.00;58.60;;;;;;5096430;28;20078;-94
2022/06/13 10:58:11;;;;;;;7.82;1.92;;;20.00;58.50;;;;;;5092842;28;20091;-91
2022/06/13 11:00:41;;;;;;;4.25;1.60;;;20.00;58.50;;;;;;5074663;28;20078;-91
2022/06/13 11:03:14;;;;;;;4.93;1.80;;;20.00;58.40;;;;;;5075520;28;20481;-92
2022/06/13 11:06:02;;;;;;;9.43;2.20;;;20.10;58.40;;;;;;5075320;28;20059;-91
2022/06/13 11:08:30;;;;;;;6.53;1.90;;;20.10;58.50;;;;;;5074775;28;20405;-91
2022/06/13 11:11:05;;;;;;;7.13;1.80;;;20.00;58.50;;;;;;5074708;28;20091;-90
2022/06/13 11:13:38;;;;;;;6.50;1.80;;;20.00;58.40;;;;;;5074654;28;20048;-91
2022/06/13 11:24:47;;;;;;;5.65;1.70;;;20.00;58.50;;;;;;5055381;28;20053;-91
2022/06/13 11:27:41;;;;;;;8.15;2.30;;;20.00;58.50;;;;;;5072719;28;20119;-91
2022/06/13 11:30:32;;;;;;;4.15;1.60;;;20.00;58.60;;;;;;5070192;28;20059;-91
2022/06/13 11:33:01;;;;;;;6.70;1.83;;;20.00;58.60;;;;;;5069208;28;20052;-91
2022/06/13 11:35:35;;;;;;;6.80;1.90;;;20.10;58.50;;;;;;5068849;28;20048;-91
2022/06/13 11:38:29;;;;;;;6.35;1.67;;;20.10;58.50;;;;;;5075105;28;20048;-92
2022/06/13 11:41:17;;;;;;;8.05;1.95;;;20.20;58.40;;;;;;5074676;28;20053;-91
2022/06/13 11:43:51;;;;;;;5.18;1.75;;;20.20;58.40;;;;;;5073722;28;20048;-92
2022/06/13 11:46:53;;;;;;;6.95;1.73;;;20.30;58.30;;;;;;5074706;28;20048;-92
2022/06/13 11:49:29;;;;;;;4.25;1.30;;;20.30;58.20;;;;;;5032391;28;20577;-91
2022/06/13 11:53:35;;;;;;;5.65;1.65;;;20.40;58.20;;;;;;5032075;28;20057;-93
2022/06/13 11:55:01;;;;;;;7.05;1.75;;;20.40;58.10;;;;;;5051149;28;20048;-92
2022/06/13 11:57:36;;;;;;;11.50;1.60;;;20.40;58.10;;;;;;5052911;28;20060;-91
2022/06/13 12:00:15;;;;;;;5.60;1.58;;;20.40;57.90;;;;;;5052753;28;20053;-90
2022/06/13 12:02:42;;;;;;;6.55;1.90;;;20.40;57.90;;;;;;5047926;28;20052;-92
2022/06/13 12:05:22;;;;;;;6.32;1.58;;;20.40;57.90;;;;;;5039821;28;20046;-91
2022/06/13 12:07:59;;;;;;;4.68;1.63;;;20.40;57.80;;;;;;5031883;28;20081;-92
2022/06/13 12:10:34;;;;;;;6.63;1.80;;;20.40;57.70;;;;;;5031729;28;20049;-92
2022/06/13 12:13:03;;;;;;;5.07;1.60;;;20.40;57.70;;;;;;5032450;28;20469;-92
2022/06/13 12:15:37;;;;;;;4.85;1.50;;;20.40;57.70;;;;;;5032517;28;20057;-93
2022/06/13 12:18:20;;;;;;;5.55;1.60;;;20.50;57.60;;;;;;5013057;28;20447;-92
2022/06/13 12:20:55;;;;;;;4.03;1.42;;;20.60;57.50;;;;;;5012270;28;20057;-92
2022/06/13 12:23:42;;;;;;;5.32;1.58;;;20.60;57.40;;;;;;5025790;28;20054;-90
2022/06/13 12:26:24;;;;;;;5.57;1.33;;;20.70;57.30;;;;;;5054897;28;20040;-90
2022/06/13 12:29:19;;;;;;;6.35;1.90;;;20.80;57.10;;;;;;5072555;28;20424;-92
2022/06/13 12:31:53;;;;;;;7.47;1.60;;;20.90;57.00;;;;;;5073579;28;20079;-91
2022/06/13 12:34:39;;;;;;;3.75;1.38;;;20.90;56.90;;;;;;5073181;28;20060;-90
2022/06/13 12:37:09;;;;;;;4.30;1.33;;;21.00;56.70;;;;;;5073365;28;20056;-91
2022/06/13 12:39:49;;;;;;;3.75;1.50;;;21.10;56.50;;;;;;5073166;28;20455;-90
2022/06/13 12:42:37;;;;;;;5.05;1.55;;;21.20;56.40;;;;;;5053452;28;20057;-90
2022/06/13 12:45:19;;;;;;;;;;;21.30;56.10;;;;;;5073553;28;20052;-91
2022/06/13 12:48:05;;;;;;;4.32;1.40;;;21.40;56.00;;;;;;5075404;28;19947;-93
2022/06/13 12:50:57;;;;;;;5.05;1.58;;;21.40;55.80;;;;;;5073357;28;20053;-91
2022/06/13 12:53:38;;;;;;;4.18;1.20;;;21.50;55.40;;;;;;5072745;28;20056;-92
2022/06/13 12:56:26;;;;;;;5.90;1.50;;;21.50;55.20;;;;;;5070389;28;20041;-90
2022/06/13 12:59:14;;;;;;;5.60;1.33;;;21.60;55.00;;;;;;5062820;28;20044;-92
2022/06/13 13:01:51;;;;;;;4.25;1.20;;;21.70;54.90;;;;;;5073953;28;20106;-93
2022/06/13 13:04:38;;;;;;;5.47;1.55;;;21.80;54.60;;;;;;5052477;28;20052;-92
2022/06/13 13:07:46;;;;;;;4.15;1.40;;;21.80;54.50;;;;;;5072460;28;20094;-91
2022/06/13 13:10:33;;;;;;;3.30;1.30;;;21.90;54.30;;;;;;5057201;28;20047;-90
2022/06/13 13:13:17;;;;;;;4.43;1.33;;;22.00;54.10;;;;;;5073393;28;20045;-92
2022/06/13 13:15:55;;;;;;;3.67;1.20;;;22.10;54.00;;;;;;5073396;28;20053;-91
2022/06/13 13:18:56;;;;;;;5.22;1.30;;;22.20;53.90;;;;;;5073485;28;20563;-92
2022/06/13 13:21:37;;;;;;;5.28;1.60;;;22.20;53.80;;;;;;5073392;28;20118;-91
2022/06/13 13:24:07;;;;;;;3.72;1.23;;;22.30;53.60;;;;;;5053504;28;20056;-92
2022/06/13 13:26:43;;;;;;;5.03;1.27;;;22.40;53.50;;;;;;5053664;28;20053;-91
2022/06/13 13:29:42;;;;;;;3.80;1.20;;;22.40;53.40;;;;;;5068479;28;20110;-93
2022/06/13 13:32:34;;;;;;;4.90;1.35;;;22.40;53.20;;;;;;5031635;28;20049;-94
2022/06/13 13:35:28;;;;;;;3.70;1.20;;;22.50;53.10;;;;;;5031487;28;20061;-93
2022/06/13 13:38:08;;;;;;;4.00;1.20;;;22.60;53.00;;;;;;5031517;28;20088;-92
2022/06/13 13:40:49;;;;;;;3.65;1.17;;;22.60;52.60;;;;;;5046455;28;20110;-93
2022/06/13 13:43:21;;;;;;;3.50;1.00;;;22.80;52.40;;;;;;5071275;28;20067;-92
2022/06/13 13:46:18;;;;;;;5.43;1.47;;;22.80;52.30;;;;;;5070748;28;20051;-94
2022/06/13 13:48:56;;;;;;;3.53;1.10;;;22.80;52.10;;;;;;5051185;28;20045;-94
2022/06/13 13:51:35;;;;;;;5.00;1.40;;;22.80;52.00;;;;;;5034509;28;20095;-95
2022/06/13 13:54:47;;;;;;;4.47;1.40;;;22.90;51.90;;;;;;5031379;28;20045;-92
2022/06/13 13:57:41;;;;;;;4.00;1.20;;;22.80;51.80;;;;;;5031597;28;20521;-94
2022/06/13 14:00:35;;;;;;;3.78;1.15;;;22.80;51.60;;;;;;5015504;28;20060;-94
2022/06/13 14:03:23;;;;;;;4.37;1.50;;;22.80;51.60;;;;;;5015227;28;20629;-95
2022/06/13 14:06:01;;;;;;;4.93;1.27;;;22.80;51.60;;;;;;5014992;28;20053;-92
2022/06/13 14:08:31;;;;;;;3.55;1.27;;;22.70;51.60;;;;;;5030721;28;20052;-93
2022/06/13 14:10:59;;;;;;;2.85;1.05;;;22.70;51.60;;;;;;5052276;28;20053;-92
2022/06/13 14:13:31;;;;;;;3.90;1.40;;;22.70;51.70;;;;;;5052238;28;20060;-93